Time;durP1;ratioP1;P1;durP2;ratioP2;P2;SDS_P1;SDS_P2;PMS_P1;PMS_P2;Temp;Humidity;BMP_temperature;BMP_pressure;BME280_temperature;BME280_humidity;BME280_pressure;Samples;Min_cycle;Max_cycle;Signal;HPM_P1;HPM_P2
2022/09/29 00:08:26;;;;;;;5.73;4.10;;;10.00;95.80;;;;;;20913565;28;20641;-74
2022/09/29 00:18:30;;;;;;;6.13;4.10;;;9.90;96.00;;;;;;20869386;28;20222;-73
2022/09/29 00:28:33;;;;;;;6.87;4.60;;;9.70;96.00;;;;;;20910780;28;20251;-73
2022/09/29 00:38:35;;;;;;;7.47;4.33;;;9.70;96.40;;;;;;20912919;28;20217;-73
2022/09/29 00:48:37;;;;;;;7.47;4.30;;;9.70;96.30;;;;;;20916797;28;20289;-70
2022/09/29 00:58:53;;;;;;;7.77;4.87;;;9.60;96.50;;;;;;20910233;28;20677;-71
2022/09/29 01:09:04;;;;;;;8.67;4.33;;;9.60;96.50;;;;;;20910204;28;20230;-68
2022/09/29 01:19:25;;;;;;;7.70;4.30;;;9.60;96.30;;;;;;20908390;28;20237;-70
2022/09/29 01:29:50;;;;;;;10.03;4.23;;;9.60;96.50;;;;;;20910920;28;20254;-70
2022/09/29 01:39:52;;;;;;;9.20;3.90;;;9.60;96.70;;;;;;20924418;28;20211;-70
2022/09/29 01:50:03;;;;;;;6.80;4.00;;;9.60;96.90;;;;;;20923885;28;20257;-70
2022/09/29 02:00:09;;;;;;;5.87;3.83;;;9.50;96.70;;;;;;20922826;28;20735;-71
2022/09/29 02:10:28;;;;;;;14.90;4.03;;;9.50;96.80;;;;;;20921925;28;20264;-70
2022/09/29 02:20:30;;;;;;;5.53;3.83;;;9.50;96.90;;;;;;20921822;28;20208;-70
2022/09/29 02:30:33;;;;;;;9.17;4.00;;;9.40;96.90;;;;;;20920345;28;20241;-70
2022/09/29 02:40:58;;;;;;;7.70;3.87;;;9.30;97.20;;;;;;20919679;28;20240;-70
2022/09/29 02:51:14;;;;;;;7.10;4.13;;;9.50;97.10;;;;;;20919372;28;20235;-74
2022/09/29 03:01:16;;;;;;;8.23;3.73;;;9.50;97.00;;;;;;20918199;28;20231;-70
2022/09/29 03:11:18;;;;;;;7.63;4.00;;;9.60;97.40;;;;;;20917218;28;20227;-70
2022/09/29 03:21:20;;;;;;;7.73;4.00;;;9.60;97.30;;;;;;20833389;28;20235;-70
2022/09/29 03:31:21;;;;;;;9.07;4.00;;;9.60;97.10;;;;;;20832663;28;20706;-72
2022/09/29 03:41:23;;;;;;;10.57;4.03;;;9.50;97.30;;;;;;20833040;28;20207;-74
2022/09/29 03:51:24;;;;;;;10.80;4.23;;;9.40;97.40;;;;;;20832119;28;20266;-71
2022/09/29 04:01:26;;;;;;;11.93;4.63;;;9.40;97.20;;;;;;20830995;28;20656;-68
2022/09/29 04:11:28;;;;;;;7.30;4.10;;;9.40;97.30;;;;;;20830466;28;20240;-70
2022/09/29 04:21:29;;;;;;;9.17;4.30;;;9.40;97.60;;;;;;20829331;28;20244;-73
2022/09/29 04:31:31;;;;;;;7.30;4.00;;;9.50;97.20;;;;;;20829309;28;20706;-74
2022/09/29 04:41:34;;;;;;;12.27;5.00;;;9.40;97.20;;;;;;20828746;28;20689;-72
2022/09/29 04:51:36;;;;;;;9.87;5.03;;;9.50;97.40;;;;;;20826678;28;20636;-73
2022/09/29 05:01:38;;;;;;;12.30;5.17;;;9.50;97.60;;;;;;20826550;28;20727;-75
2022/09/29 05:11:40;;;;;;;10.90;5.30;;;9.50;97.70;;;;;;20840437;28;20246;-70
2022/09/29 05:21:41;;;;;;;16.40;5.53;;;9.40;97.50;;;;;;20839197;28;20246;-72
2022/09/29 05:31:44;;;;;;;11.10;5.10;;;9.40;97.50;;;;;;20840537;28;20238;-74
2022/09/29 05:41:47;;;;;;;15.70;6.60;;;9.40;97.50;;;;;;20842818;28;20223;-69
2022/09/29 05:51:49;;;;;;;12.27;5.80;;;9.30;97.30;;;;;;20840513;28;20262;-70
2022/09/29 06:01:51;;;;;;;17.33;6.97;;;9.40;97.60;;;;;;20839135;28;20213;-72
2022/09/29 06:11:53;;;;;;;19.80;7.10;;;9.50;97.50;;;;;;20837727;28;20234;-70
2022/09/29 06:21:54;;;;;;;25.37;9.87;;;9.50;97.80;;;;;;20836834;28;20234;-71
2022/09/29 06:31:56;;;;;;;15.17;7.50;;;9.60;98.00;;;;;;20835543;28;20324;-70
2022/09/29 06:41:58;;;;;;;15.50;8.87;;;9.80;98.10;;;;;;20835463;28;20215;-71
2022/09/29 06:52:00;;;;;;;21.77;8.30;;;9.80;98.30;;;;;;20831965;28;20236;-70
2022/09/29 07:02:18;;;;;;;15.67;10.57;;;9.90;98.30;;;;;;20834161;28;20219;-71
2022/09/29 07:12:20;;;;;;;21.70;11.27;;;10.20;98.00;;;;;;20832966;28;20241;-71
2022/09/29 07:22:22;;;;;;;16.77;10.30;;;10.30;98.40;;;;;;20830147;28;20240;-71
2022/09/29 07:32:25;;;;;;;14.70;10.00;;;10.50;98.50;;;;;;20828553;28;20238;-71
2022/09/29 07:42:29;;;;;;;15.70;10.00;;;10.80;98.20;;;;;;20831082;28;20557;-71
2022/09/29 07:52:30;;;;;;;13.30;9.03;;;10.90;98.40;;;;;;20830139;28;20213;-71
2022/09/29 08:02:32;;;;;;;17.57;9.40;;;11.00;97.80;;;;;;20829168;28;20659;-72
2022/09/29 08:12:34;;;;;;;14.37;9.80;;;11.10;97.90;;;;;;20828908;28;20218;-69
2022/09/29 08:22:45;;;;;;;16.57;9.10;;;11.20;98.10;;;;;;20828829;28;20270;-71
2022/09/29 08:32:52;;;;;;;16.03;9.57;;;11.40;97.60;;;;;;20827798;28;20644;-71
2022/09/29 08:43:03;;;;;;;15.67;9.30;;;11.70;97.60;;;;;;20836646;28;20239;-71
2022/09/29 08:53:12;;;;;;;13.87;8.53;;;11.70;97.80;;;;;;20844241;28;20217;-71
2022/09/29 09:03:43;;;;;;;13.30;8.17;;;11.90;97.30;;;;;;20842975;28;20234;-71
2022/09/29 09:14:06;;;;;;;18.67;8.70;;;12.30;97.20;;;;;;20842796;28;20219;-70
2022/09/29 09:24:16;;;;;;;9.47;7.27;;;12.60;96.10;;;;;;20850881;28;20776;-72
2022/09/29 09:34:34;;;;;;;16.33;8.47;;;12.60;96.00;;;;;;20840098;28;20263;-71
2022/09/29 09:44:50;;;;;;;11.50;8.43;;;12.80;95.70;;;;;;20839891;28;20235;-72
2022/09/29 09:54:55;;;;;;;14.30;8.80;;;12.80;95.90;;;;;;20838644;28;20576;-70
2022/09/29 10:04:57;;;;;;;27.43;19.77;;;13.20;95.70;;;;;;20839284;28;20239;-72
2022/09/29 10:15:16;;;;;;;14.40;8.60;;;13.70;94.60;;;;;;20838631;28;20691;-71
2022/09/29 10:25:19;;;;;;;12.17;8.00;;;14.00;94.10;;;;;;20850454;28;20247;-73
2022/09/29 10:35:30;;;;;;;16.07;7.90;;;14.10;94.30;;;;;;20850214;28;20218;-72
2022/09/29 10:45:46;;;;;;;15.53;7.97;;;14.30;94.00;;;;;;20835484;28;20267;-71
2022/09/29 10:55:53;;;;;;;12.60;7.27;;;14.20;93.70;;;;;;20834935;28;20207;-72
2022/09/29 11:06:01;;;;;;;11.57;6.30;;;14.10;93.40;;;;;;20834378;28;20293;-72
2022/09/29 11:16:37;;;;;;;9.80;5.97;;;13.80;92.90;;;;;;20838423;28;20212;-72
2022/09/29 11:27:17;;;;;;;8.77;5.13;;;13.80;93.10;;;;;;20911246;28;20247;-71
2022/09/29 11:37:48;;;;;;;9.67;5.30;;;13.90;92.50;;;;;;20914017;28;20243;-72
2022/09/29 11:48:08;;;;;;;7.57;4.00;;;14.10;92.60;;;;;;20903541;28;20231;-72
2022/09/29 11:58:31;;;;;;;5.40;3.50;;;14.50;92.30;;;;;;20912810;28;20538;-71
2022/09/29 12:08:55;;;;;;;4.53;3.17;;;14.80;91.30;;;;;;20912488;28;20300;-72
2022/09/29 12:19:01;;;;;;;4.43;2.90;;;15.10;90.60;;;;;;20911666;28;20238;-71
2022/09/29 12:29:30;;;;;;;6.23;2.90;;;15.40;90.30;;;;;;20910508;28;20248;-72
2022/09/29 12:39:33;;;;;;;6.77;2.70;;;15.70;86.90;;;;;;20909703;28;20214;-71
2022/09/29 12:49:59;;;;;;;4.57;2.73;;;15.70;87.00;;;;;;20910546;28;20266;-70
2022/09/29 13:00:03;;;;;;;4.23;2.40;;;15.80;84.60;;;;;;20909893;28;20666;-71
2022/09/29 13:10:25;;;;;;;2.50;2.10;;;15.60;83.60;;;;;;20909160;28;20244;-70
2022/09/29 13:20:38;;;;;;;4.57;2.60;;;15.60;84.00;;;;;;20865517;28;20282;-70
2022/09/29 13:30:40;;;;;;;6.97;2.80;;;15.40;83.50;;;;;;20832780;28;20240;-69
2022/09/29 13:41:08;;;;;;;13.03;6.77;;;15.20;83.40;;;;;;20840542;28;20253;-70
2022/09/29 13:51:26;;;;;;;4.67;2.90;;;14.90;84.10;;;;;;20840512;28;20267;-69
2022/09/29 14:01:38;;;;;;;42.97;24.53;;;14.20;88.30;;;;;;20839180;28;20659;-68
2022/09/29 14:11:50;;;;;;;7.87;4.87;;;14.10;88.60;;;;;;20837801;28;20240;-70
2022/09/29 14:21:54;;;;;;;6.13;2.60;;;13.80;90.30;;;;;;20838123;28;20236;-69
2022/09/29 14:31:59;;;;;;;5.07;2.87;;;13.60;91.20;;;;;;20870764;28;20270;-72
2022/09/29 14:42:00;;;;;;;7.13;4.67;;;13.50;92.10;;;;;;20856979;28;20282;-73
2022/09/29 14:52:22;;;;;;;4.20;2.60;;;13.60;92.90;;;;;;20913975;28;20231;-74
2022/09/29 15:02:27;;;;;;;5.57;2.60;;;13.60;93.20;;;;;;20916382;28;20275;-74
2022/09/29 15:12:31;;;;;;;4.37;2.83;;;13.60;93.60;;;;;;20918070;28;20292;-73
2022/09/29 15:22:54;;;;;;;6.13;3.40;;;13.70;94.20;;;;;;20918157;28;20312;-79
2022/09/29 15:33:35;;;;;;;2.50;1.87;;;13.80;94.60;;;;;;20928657;28;20242;-77
2022/09/29 15:43:56;;;;;;;2.80;2.00;;;13.70;94.10;;;;;;20903456;28;20229;-71
2022/09/29 15:54:03;;;;;;;2.77;2.20;;;13.50;93.90;;;;;;20879361;28;20254;-74
2022/09/29 16:04:07;;;;;;;3.87;2.10;;;13.30;93.70;;;;;;20888877;28;20227;-74
2022/09/29 16:14:23;;;;;;;3.67;2.80;;;13.30;94.00;;;;;;20910659;28;20730;-77
2022/09/29 16:24:30;;;;;;;5.93;2.57;;;13.10;94.00;;;;;;20899740;28;20239;-72
2022/09/29 16:34:32;;;;;;;5.33;2.70;;;13.00;94.10;;;;;;20883415;28;20235;-76
2022/09/29 16:44:42;;;;;;;4.80;2.77;;;12.90;94.30;;;;;;20899071;28;20275;-70
2022/09/29 16:54:46;;;;;;;2.37;2.17;;;12.70;94.60;;;;;;20909751;28;20215;-70
2022/09/29 17:04:50;;;;;;;4.50;2.40;;;12.70;94.90;;;;;;20904904;28;20308;-71
2022/09/29 17:14:51;;;;;;;4.27;3.00;;;12.60;94.80;;;;;;20843790;28;20211;-72
2022/09/29 17:24:53;;;;;;;9.23;5.43;;;12.50;95.10;;;;;;20908104;28;20291;-71
2022/09/29 17:34:55;;;;;;;7.03;5.00;;;12.40;95.60;;;;;;20925125;28;20260;-72
2022/09/29 17:44:58;;;;;;;7.57;5.33;;;12.20;95.70;;;;;;20923802;28;20236;-69
2022/09/29 17:55:00;;;;;;;10.23;7.70;;;12.10;96.20;;;;;;20907531;28;20201;-71
2022/09/29 18:05:02;;;;;;;13.70;8.50;;;11.90;96.30;;;;;;20837958;28;20270;-71
2022/09/29 18:15:04;;;;;;;12.47;7.87;;;11.80;96.40;;;;;;20889941;28;20215;-72
2022/09/29 18:25:06;;;;;;;21.33;13.23;;;11.80;96.90;;;;;;20920526;28;20727;-71
2022/09/29 18:35:13;;;;;;;24.07;16.27;;;11.60;97.40;;;;;;20920061;28;20232;-72
2022/09/29 18:45:23;;;;;;;22.70;14.77;;;11.50;97.20;;;;;;20919198;28;20241;-73
2022/09/29 18:55:27;;;;;;;13.57;9.57;;;11.20;97.10;;;;;;20838978;28;20232;-76
2022/09/29 19:05:30;;;;;;;14.53;8.77;;;11.10;97.50;;;;;;20908961;28;20247;-73
2022/09/29 19:15:34;;;;;;;13.17;7.53;;;11.00;97.50;;;;;;20916444;28;20538;-74
2022/09/29 19:25:38;;;;;;;9.70;6.87;;;11.00;98.30;;;;;;20914790;28;20604;-74
2022/09/29 19:35:53;;;;;;;12.43;7.10;;;10.80;98.00;;;;;;20915549;28;20236;-73
2022/09/29 19:45:54;;;;;;;26.10;15.63;;;10.70;97.70;;;;;;20914263;28;20266;-74
2022/09/29 19:55:57;;;;;;;13.10;8.63;;;10.50;97.90;;;;;;20913641;28;20579;-75
2022/09/29 20:06:05;;;;;;;13.47;9.33;;;10.50;98.20;;;;;;20913510;28;20233;-74
2022/09/29 20:16:07;;;;;;;12.10;8.30;;;10.40;98.20;;;;;;20915089;28;20213;-75
2022/09/29 20:26:08;;;;;;;13.77;9.33;;;10.30;97.90;;;;;;20912167;28;20293;-75
2022/09/29 20:36:10;;;;;;;16.20;9.40;;;10.30;98.20;;;;;;20931388;28;20207;-78
2022/09/29 20:46:13;;;;;;;23.13;14.33;;;10.20;98.10;;;;;;20919376;28;20592;-80
2022/09/29 20:56:15;;;;;;;19.15;13.75;;;10.00;97.30;;;;;;20905284;28;20535;-71
2022/09/29 21:06:19;;;;;;;13.33;8.57;;;10.30;98.20;;;;;;20909160;28;20263;-71
2022/09/29 21:16:22;;;;;;;11.27;8.07;;;10.00;98.10;;;;;;20911016;28;20600;-72
2022/09/29 21:26:25;;;;;;;13.20;7.90;;;9.80;98.60;;;;;;20910018;28;20285;-72
2022/09/29 21:36:28;;;;;;;12.93;7.83;;;9.70;98.50;;;;;;20909800;28;20250;-72
2022/09/29 21:46:32;;;;;;;14.07;8.17;;;9.60;98.60;;;;;;20911298;28;20235;-70
2022/09/29 21:56:39;;;;;;;12.23;7.07;;;9.70;98.70;;;;;;20923955;28;20703;-72
2022/09/29 22:06:43;;;;;;;11.27;6.93;;;9.30;98.10;;;;;;20922963;28;20281;-72
2022/09/29 22:16:45;;;;;;;11.37;7.10;;;9.40;98.40;;;;;;20911366;28;20204;-72
2022/09/29 22:26:47;;;;;;;14.60;7.10;;;9.30;98.20;;;;;;20915535;28;20713;-72
2022/09/29 22:36:50;;;;;;;10.57;6.47;;;9.20;97.90;;;;;;20920023;28;20255;-72
2022/09/29 22:46:51;;;;;;;9.27;6.20;;;9.20;97.90;;;;;;20920202;28;20640;-71
2022/09/29 22:56:54;;;;;;;10.90;6.50;;;9.00;98.00;;;;;;20919128;28;20207;-73
2022/09/29 23:06:55;;;;;;;10.67;6.27;;;9.00;98.30;;;;;;20918397;28;20249;-71
2022/09/29 23:16:57;;;;;;;9.87;5.97;;;9.10;98.30;;;;;;20917958;28;20225;-72
2022/09/29 23:26:59;;;;;;;8.37;6.07;;;9.00;98.20;;;;;;20916466;28;20298;-72
2022/09/29 23:37:01;;;;;;;19.13;5.97;;;9.10;97.80;;;;;;20916073;28;20668;-73
2022/09/29 23:47:02;;;;;;;8.83;5.73;;;9.10;98.10;;;;;;20915553;28;20583;-70
2022/09/29 23:57:04;;;;;;;8.97;5.53;;;9.10;97.80;;;;;;20914610;28;20261;-69
